Time;durP1;ratioP1;P1;durP2;ratioP2;P2;SDS_P1;SDS_P2;PMS_P1;PMS_P2;Temp;Humidity;BMP_temperature;BMP_pressure;BME280_temperature;BME280_humidity;BME280_pressure;Samples;Min_cycle;Max_cycle;Signal;HPM_P1;HPM_P2
2022/03/29 00:01:16;;;;;;;9.53;6.20;;;15.90;1.00;;;;;;5068217;28;20975;-81
2022/03/29 00:03:45;;;;;;;6.33;5.70;;;15.80;1.00;;;;;;5064593;28;20529;-80
2022/03/29 00:06:14;;;;;;;9.60;7.30;;;15.80;1.00;;;;;;5068260;28;20471;-80
2022/03/29 00:08:43;;;;;;;9.80;6.63;;;15.60;1.00;;;;;;5070728;28;20545;-81
2022/03/29 00:11:13;;;;;;;8.23;5.30;;;15.70;1.00;;;;;;5062946;28;20466;-80
2022/03/29 00:13:41;;;;;;;9.90;6.97;;;15.70;1.00;;;;;;5062145;28;20455;-80
2022/03/29 00:16:09;;;;;;;8.10;6.20;;;15.70;1.00;;;;;;5061397;28;22603;-80
2022/03/29 00:18:38;;;;;;;8.90;5.70;;;15.70;1.00;;;;;;5058422;28;20923;-82
2022/03/29 00:21:06;;;;;;;8.50;6.07;;;15.70;1.00;;;;;;5060960;28;20456;-80
2022/03/29 00:23:36;;;;;;;8.00;6.10;;;15.70;1.00;;;;;;5061249;28;20458;-80
2022/03/29 00:26:04;;;;;;;7.73;5.20;;;15.70;1.00;;;;;;5065056;28;20478;-79
2022/03/29 00:28:32;;;;;;;9.07;6.03;;;15.70;1.00;;;;;;5067252;28;20454;-81
2022/03/29 00:31:01;;;;;;;9.43;6.30;;;15.70;1.00;;;;;;5067624;28;20463;-78
2022/03/29 00:33:29;;;;;;;13.20;6.33;;;15.60;1.00;;;;;;5058768;28;20486;-80
2022/03/29 00:35:57;;;;;;;9.40;6.30;;;15.60;1.00;;;;;;5060359;28;20459;-82
2022/03/29 00:38:25;;;;;;;9.20;6.90;;;15.50;1.00;;;;;;5064652;28;20458;-79
2022/03/29 00:40:56;;;;;;;6.80;5.90;;;15.60;1.00;;;;;;5064594;28;20458;-80
2022/03/29 00:43:24;;;;;;;8.10;5.30;;;15.60;1.00;;;;;;5060109;28;20455;-80
2022/03/29 00:45:52;;;;;;;9.43;5.40;;;15.60;1.00;;;;;;5062859;28;20473;-79
2022/03/29 00:48:21;;;;;;;7.40;5.20;;;15.60;1.00;;;;;;5058412;28;20457;-78
2022/03/29 00:50:49;;;;;;;11.67;6.67;;;15.60;1.00;;;;;;5065497;28;20445;-78
2022/03/29 00:53:18;;;;;;;8.70;5.97;;;15.60;1.00;;;;;;5063249;28;20468;-81
2022/03/29 00:55:48;;;;;;;7.40;5.33;;;15.50;1.00;;;;;;5065682;28;20466;-78
2022/03/29 00:58:18;;;;;;;7.10;5.80;;;15.50;1.00;;;;;;5060285;28;20478;-78
2022/03/29 01:00:47;;;;;;;9.50;5.70;;;15.50;1.00;;;;;;5060313;28;20473;-78
2022/03/29 01:03:16;;;;;;;9.53;6.00;;;15.50;1.00;;;;;;5063376;28;20450;-78
2022/03/29 01:05:44;;;;;;;7.70;5.00;;;15.50;1.00;;;;;;5064786;28;20589;-79
2022/03/29 01:08:13;;;;;;;8.67;6.37;;;15.50;1.00;;;;;;5069299;28;20462;-78
2022/03/29 01:10:43;;;;;;;10.80;5.83;;;15.50;1.00;;;;;;5067341;28;20465;-79
2022/03/29 01:13:13;;;;;;;11.00;5.90;;;15.50;1.00;;;;;;5065788;28;20455;-79
2022/03/29 01:15:43;;;;;;;7.67;5.90;;;15.50;1.00;;;;;;5068483;28;20920;-79
2022/03/29 01:18:11;;;;;;;6.33;5.40;;;15.50;1.00;;;;;;5063581;28;20953;-79
2022/03/29 01:20:40;;;;;;;7.00;5.43;;;15.40;1.00;;;;;;5066877;28;20540;-80
2022/03/29 01:23:11;;;;;;;14.77;6.83;;;15.40;1.00;;;;;;5057511;28;20454;-79
2022/03/29 01:25:41;;;;;;;7.00;5.50;;;15.40;1.00;;;;;;5065752;28;20518;-79
2022/03/29 01:28:11;;;;;;;9.80;6.27;;;15.40;1.00;;;;;;5068284;28;20463;-78
2022/03/29 01:30:39;;;;;;;6.83;5.87;;;15.30;1.00;;;;;;5068308;28;20458;-77
2022/03/29 01:33:10;;;;;;;7.87;5.07;;;15.30;1.00;;;;;;5065196;28;20466;-76
2022/03/29 01:35:40;;;;;;;9.10;6.60;;;15.30;1.00;;;;;;5060839;28;20526;-80
2022/03/29 01:38:08;;;;;;;9.10;5.30;;;15.20;1.00;;;;;;5067778;28;20466;-77
2022/03/29 01:40:37;;;;;;;10.03;6.23;;;15.10;1.00;;;;;;5070814;28;20517;-78
2022/03/29 01:43:06;;;;;;;8.87;6.80;;;15.10;1.00;;;;;;5067291;28;21252;-78
2022/03/29 01:45:34;;;;;;;9.70;6.50;;;15.10;1.00;;;;;;5065166;28;20447;-77
2022/03/29 01:48:02;;;;;;;9.40;5.73;;;15.20;1.00;;;;;;5069656;28;20465;-79
2022/03/29 01:50:31;;;;;;;8.53;4.90;;;15.10;1.00;;;;;;5063218;28;20825;-80
2022/03/29 01:52:59;;;;;;;6.30;5.13;;;15.20;1.00;;;;;;5066482;28;20434;-79
2022/03/29 01:55:27;;;;;;;6.60;5.90;;;15.10;1.00;;;;;;5057896;28;20512;-80
2022/03/29 01:57:57;;;;;;;8.90;5.70;;;15.10;1.00;;;;;;5062042;28;20462;-78
2022/03/29 02:00:35;;;;;;;11.57;5.77;;;15.20;1.00;;;;;;5064614;28;20488;-79
2022/03/29 02:03:05;;;;;;;6.83;5.17;;;15.20;1.00;;;;;;5063589;28;21042;-81
2022/03/29 02:05:34;;;;;;;9.20;5.50;;;15.20;1.00;;;;;;5064829;28;20442;-78
2022/03/29 02:08:03;;;;;;;10.07;6.63;;;15.20;1.00;;;;;;5063344;28;20932;-79
2022/03/29 02:10:32;;;;;;;11.13;6.83;;;15.10;1.00;;;;;;5056632;28;21123;-80
2022/03/29 02:13:02;;;;;;;8.40;5.90;;;15.10;1.00;;;;;;5063917;28;20454;-79
2022/03/29 02:15:30;;;;;;;12.10;7.47;;;15.10;1.00;;;;;;5060525;28;20460;-79
2022/03/29 02:17:58;;;;;;;8.77;7.07;;;15.10;1.00;;;;;;5063989;28;20630;-79
2022/03/29 02:20:27;;;;;;;8.47;5.93;;;15.10;1.00;;;;;;5065878;28;20468;-79
2022/03/29 02:22:55;;;;;;;11.77;5.73;;;15.00;1.00;;;;;;5064444;28;20462;-78
2022/03/29 02:25:23;;;;;;;7.47;5.73;;;15.00;1.00;;;;;;5065352;28;20474;-79
2022/03/29 02:27:52;;;;;;;8.00;5.63;;;15.00;1.00;;;;;;5061857;28;20837;-79
2022/03/29 02:30:22;;;;;;;11.60;7.10;;;15.00;1.00;;;;;;5062408;28;20470;-80
2022/03/29 02:32:50;;;;;;;17.07;7.47;;;15.20;1.00;;;;;;5067898;28;21115;-80
2022/03/29 02:35:18;;;;;;;7.07;5.40;;;15.00;1.00;;;;;;5058932;28;20545;-79
2022/03/29 02:37:47;;;;;;;8.73;6.97;;;15.00;1.00;;;;;;5058944;28;20477;-80
2022/03/29 02:40:15;;;;;;;10.90;5.90;;;14.90;1.00;;;;;;5064270;28;20474;-77
2022/03/29 02:42:45;;;;;;;8.97;5.37;;;14.90;1.00;;;;;;5066664;28;20972;-79
2022/03/29 02:45:15;;;;;;;8.87;6.37;;;14.90;1.00;;;;;;5064495;28;20476;-79
2022/03/29 02:47:46;;;;;;;8.03;5.30;;;14.90;1.00;;;;;;5067217;28;20486;-79
2022/03/29 02:50:15;;;;;;;9.63;5.90;;;14.80;1.00;;;;;;5065262;28;20486;-80
2022/03/29 02:52:45;;;;;;;9.43;5.93;;;14.80;1.00;;;;;;5064489;28;20473;-81
2022/03/29 02:55:14;;;;;;;6.33;5.60;;;14.70;1.00;;;;;;5059833;28;20528;-83
2022/03/29 02:57:42;;;;;;;11.23;5.50;;;14.80;1.00;;;;;;5062723;28;20935;-80
2022/03/29 03:00:15;;;;;;;9.90;6.60;;;15.00;1.00;;;;;;5068549;28;20493;-79
2022/03/29 03:02:46;;;;;;;5.97;5.40;;;15.00;1.00;;;;;;5068328;28;20465;-79
2022/03/29 03:05:14;;;;;;;8.43;5.60;;;15.00;1.00;;;;;;5060629;28;22092;-82
2022/03/29 03:07:45;;;;;;;8.30;5.90;;;15.00;1.00;;;;;;5063587;28;20483;-79
2022/03/29 03:10:15;;;;;;;6.50;5.10;;;14.90;1.00;;;;;;5063642;28;20478;-79
2022/03/29 03:12:45;;;;;;;8.90;6.47;;;15.00;1.00;;;;;;5068802;28;20961;-80
2022/03/29 03:15:16;;;;;;;6.20;5.57;;;14.80;1.00;;;;;;5065368;28;21466;-78
2022/03/29 03:17:46;;;;;;;7.80;5.60;;;14.90;1.00;;;;;;5067514;28;20450;-77
2022/03/29 03:20:15;;;;;;;7.87;5.70;;;14.80;1.00;;;;;;5070544;28;20492;-78
2022/03/29 03:22:43;;;;;;;10.50;5.60;;;14.80;1.00;;;;;;5070946;28;20522;-78
2022/03/29 03:25:12;;;;;;;7.70;5.80;;;14.80;1.00;;;;;;5066240;28;21415;-77
2022/03/29 03:27:41;;;;;;;12.03;5.53;;;14.80;1.00;;;;;;5068367;28;20488;-78
2022/03/29 03:30:12;;;;;;;8.10;6.03;;;14.80;1.00;;;;;;5058493;28;20474;-79
2022/03/29 03:32:40;;;;;;;7.20;5.10;;;14.80;1.00;;;;;;5067698;28;20469;-79
2022/03/29 03:35:11;;;;;;;7.17;4.87;;;14.80;1.00;;;;;;5055686;28;20446;-78
2022/03/29 03:37:39;;;;;;;10.10;5.80;;;14.70;1.00;;;;;;5064026;28;20456;-79
2022/03/29 03:40:09;;;;;;;8.60;5.60;;;14.70;1.00;;;;;;5064650;28;20474;-79
2022/03/29 03:42:38;;;;;;;9.00;5.73;;;14.60;1.00;;;;;;5066147;28;20650;-79
2022/03/29 03:45:08;;;;;;;6.23;4.77;;;14.60;1.00;;;;;;5067037;28;20461;-79
2022/03/29 03:47:36;;;;;;;8.37;6.03;;;14.60;1.00;;;;;;5067385;28;20485;-80
2022/03/29 03:50:05;;;;;;;7.87;6.20;;;14.60;1.00;;;;;;5062402;28;20472;-80
2022/03/29 03:52:35;;;;;;;10.97;5.97;;;14.60;1.00;;;;;;5064734;28;20491;-79
2022/03/29 03:55:04;;;;;;;9.33;6.40;;;14.60;1.00;;;;;;5067880;28;20457;-79
2022/03/29 03:57:33;;;;;;;7.80;5.83;;;14.50;1.00;;;;;;5066450;28;20462;-79
2022/03/29 04:00:01;;;;;;;7.70;5.63;;;14.50;1.00;;;;;;5068921;28;20477;-80
2022/03/29 04:02:30;;;;;;;8.40;5.87;;;14.50;1.00;;;;;;5060937;28;20472;-79
2022/03/29 04:04:58;;;;;;;10.10;6.47;;;14.50;1.00;;;;;;5065836;28;20823;-79
2022/03/29 04:07:26;;;;;;;9.50;6.10;;;14.50;1.00;;;;;;5055533;28;20478;-79
2022/03/29 04:09:56;;;;;;;10.60;7.30;;;14.40;1.00;;;;;;5063797;28;20491;-79
2022/03/29 04:12:24;;;;;;;7.80;5.97;;;14.40;1.00;;;;;;5069347;28;20461;-77
2022/03/29 04:14:53;;;;;;;7.50;5.10;;;14.40;1.00;;;;;;5062080;28;20956;-79
2022/03/29 04:17:21;;;;;;;15.23;6.80;;;14.40;1.00;;;;;;5057279;28;20487;-81
2022/03/29 04:19:49;;;;;;;10.40;7.50;;;14.40;1.00;;;;;;5055843;28;20467;-81
2022/03/29 04:22:18;;;;;;;10.30;6.30;;;14.40;1.00;;;;;;5062146;28;20456;-82
2022/03/29 04:24:47;;;;;;;8.20;6.13;;;14.40;1.00;;;;;;5064929;28;20471;-79
2022/03/29 04:27:16;;;;;;;8.90;6.63;;;14.30;1.00;;;;;;5063176;28;20474;-79
2022/03/29 04:29:44;;;;;;;7.57;6.70;;;14.20;1.00;;;;;;5058201;28;20477;-84
2022/03/29 04:32:12;;;;;;;9.33;6.53;;;14.20;1.00;;;;;;5062637;28;20452;-76
2022/03/29 04:34:41;;;;;;;7.80;6.30;;;14.30;1.00;;;;;;5059146;28;20465;-78
2022/03/29 04:37:09;;;;;;;8.50;7.30;;;14.30;1.00;;;;;;5063728;28;20459;-77
2022/03/29 04:39:38;;;;;;;13.20;7.10;;;14.20;1.00;;;;;;5066196;28;20446;-77
2022/03/29 04:42:07;;;;;;;9.70;6.00;;;14.20;1.00;;;;;;5064668;28;21000;-79
2022/03/29 04:44:38;;;;;;;11.30;7.00;;;14.10;1.00;;;;;;5064266;28;20450;-79
2022/03/29 04:47:07;;;;;;;12.10;9.10;;;14.10;1.00;;;;;;5071444;28;20456;-79
2022/03/29 04:49:35;;;;;;;8.80;6.07;;;14.00;1.00;;;;;;5064815;28;21026;-77
2022/03/29 04:52:05;;;;;;;9.57;7.13;;;14.00;1.00;;;;;;5067490;28;20454;-79
2022/03/29 04:54:33;;;;;;;8.83;5.80;;;14.10;1.00;;;;;;5065615;28;20450;-79
2022/03/29 04:57:02;;;;;;;8.07;5.87;;;14.10;1.00;;;;;;5063882;28;20461;-77
2022/03/29 04:59:30;;;;;;;8.50;5.87;;;14.10;1.00;;;;;;5063940;28;20547;-80
2022/03/29 05:02:00;;;;;;;9.40;7.20;;;14.10;1.00;;;;;;5058981;28;20952;-79
2022/03/29 05:04:28;;;;;;;8.40;6.00;;;14.10;1.00;;;;;;5062533;28;21056;-76
2022/03/29 05:06:56;;;;;;;8.30;5.93;;;14.00;1.00;;;;;;5068117;28;20444;-77
2022/03/29 05:09:24;;;;;;;9.17;6.67;;;13.90;1.00;;;;;;5060001;28;21270;-79
2022/03/29 05:11:52;;;;;;;10.70;7.90;;;14.00;1.00;;;;;;5066234;28;20819;-79
2022/03/29 05:14:21;;;;;;;7.47;5.80;;;13.90;1.00;;;;;;5064409;28;20501;-76
2022/03/29 05:16:49;;;;;;;10.47;7.10;;;13.90;1.00;;;;;;5070203;28;20446;-78
2022/03/29 05:19:18;;;;;;;8.43;6.50;;;14.00;1.00;;;;;;5062517;28;20506;-76
2022/03/29 05:21:46;;;;;;;8.53;7.20;;;13.80;1.00;;;;;;5059247;28;20449;-78
2022/03/29 05:24:15;;;;;;;12.70;7.80;;;13.90;1.00;;;;;;5062760;28;20476;-77
2022/03/29 05:26:43;;;;;;;11.23;7.20;;;14.00;1.00;;;;;;5068986;28;20455;-77
2022/03/29 05:29:12;;;;;;;9.13;7.27;;;13.40;1.00;;;;;;5070110;28;20487;-80
2022/03/29 05:31:41;;;;;;;10.23;5.80;;;13.20;1.00;;;;;;5066406;28;21212;-76
2022/03/29 05:34:14;;;;;;;13.13;6.32;;;13.20;1.00;;;;;;5069511;28;20993;-77
2022/03/29 05:36:46;;;;;;;11.83;7.53;;;13.30;1.00;;;;;;5058048;28;20306;-76
2022/03/29 05:39:15;;;;;;;9.37;6.90;;;13.40;1.00;;;;;;5060371;28;20475;-77
2022/03/29 05:41:43;;;;;;;13.97;7.47;;;13.40;1.00;;;;;;5064229;28;20463;-78
2022/03/29 05:44:11;;;;;;;7.30;6.30;;;13.50;1.00;;;;;;5066531;28;20444;-79
2022/03/29 05:49:26;;;;;;;8.17;5.57;;;13.70;1.00;;;;;;5065812;28;20483;-77
2022/03/29 05:51:56;;;;;;;10.20;6.53;;;13.90;1.00;;;;;;5063878;28;21343;-81
2022/03/29 05:54:24;;;;;;;9.40;5.90;;;13.90;1.00;;;;;;5064959;28;20448;-81
2022/03/29 05:56:54;;;;;;;12.87;8.20;;;13.90;1.00;;;;;;5064194;28;20444;-75
2022/03/29 05:59:22;;;;;;;11.50;5.70;;;14.00;1.00;;;;;;5063803;28;20504;-80
2022/03/29 06:01:50;;;;;;;13.80;6.70;;;13.90;1.00;;;;;;5063518;28;20926;-78
2022/03/29 06:04:22;;;;;;;8.57;6.43;;;13.90;1.00;;;;;;5062485;28;20472;-77
2022/03/29 06:06:51;;;;;;;11.23;6.57;;;14.00;1.00;;;;;;5062036;28;20445;-76
2022/03/29 06:09:20;;;;;;;8.80;6.00;;;14.00;1.00;;;;;;5064041;28;20500;-80
2022/03/29 06:11:49;;;;;;;7.67;5.93;;;13.90;1.00;;;;;;5065290;28;20508;-79
2022/03/29 06:14:17;;;;;;;9.63;6.50;;;13.90;1.00;;;;;;5058470;28;20457;-79
2022/03/29 06:16:45;;;;;;;10.73;6.80;;;14.00;1.00;;;;;;5062630;28;20454;-77
2022/03/29 06:19:13;;;;;;;9.67;6.27;;;13.90;1.00;;;;;;5058186;28;20481;-78
2022/03/29 06:21:42;;;;;;;12.67;7.03;;;13.80;1.00;;;;;;5063926;28;20464;-78
2022/03/29 06:24:11;;;;;;;13.13;8.17;;;13.80;1.00;;;;;;5065429;28;20471;-79
2022/03/29 06:26:41;;;;;;;13.00;8.30;;;13.80;1.00;;;;;;5065439;28;20450;-78
2022/03/29 06:29:10;;;;;;;13.33;7.60;;;13.80;1.00;;;;;;5068546;28;20481;-78
2022/03/29 06:31:39;;;;;;;8.70;7.47;;;13.90;1.00;;;;;;5063885;28;20464;-77
2022/03/29 06:34:08;;;;;;;11.07;7.47;;;13.90;1.00;;;;;;5063719;28;20441;-81
2022/03/29 06:36:36;;;;;;;13.97;7.40;;;14.00;1.00;;;;;;5066851;28;20452;-78
2022/03/29 06:39:05;;;;;;;10.63;6.70;;;14.00;1.00;;;;;;5063946;28;20484;-80
2022/03/29 06:41:34;;;;;;;15.67;7.57;;;13.90;1.00;;;;;;5062163;28;20496;-78
2022/03/29 06:44:06;;;;;;;11.50;7.63;;;13.90;1.00;;;;;;5063414;28;20971;-79
2022/03/29 06:46:35;;;;;;;8.23;6.80;;;13.90;1.00;;;;;;5065041;28;20464;-78
2022/03/29 06:49:06;;;;;;;12.03;7.27;;;14.00;1.00;;;;;;5080184;28;20564;-76
2022/03/29 06:51:35;;;;;;;12.07;7.60;;;14.20;1.00;;;;;;5061221;28;20639;-77
2022/03/29 06:54:05;;;;;;;10.97;7.30;;;14.20;1.00;;;;;;5067444;28;20449;-79
2022/03/29 06:56:33;;;;;;;11.40;7.90;;;14.30;1.00;;;;;;5064911;28;21222;-78
2022/03/29 06:59:03;;;;;;;12.70;7.50;;;14.40;1.00;;;;;;5061815;28;20219;-77
2022/03/29 07:01:31;;;;;;;12.43;7.50;;;14.50;1.00;;;;;;5061495;28;20482;-78
2022/03/29 07:04:00;;;;;;;14.20;8.77;;;14.50;1.00;;;;;;5061050;28;21028;-77
2022/03/29 07:06:31;;;;;;;14.03;9.47;;;14.60;1.00;;;;;;5066904;28;20461;-77
2022/03/29 07:12:02;;;;;;;13.87;9.23;;;14.70;1.00;;;;;;5073443;28;20462;-77
2022/03/29 07:14:32;;;;;;;12.73;6.80;;;14.80;1.00;;;;;;5066739;28;20495;-77
2022/03/29 07:17:00;;;;;;;12.60;7.33;;;14.70;1.00;;;;;;5065108;28;20473;-76
2022/03/29 07:19:29;;;;;;;11.20;8.50;;;14.80;1.00;;;;;;5068939;28;20538;-76
2022/03/29 07:21:58;;;;;;;9.63;6.83;;;14.80;1.00;;;;;;5066156;28;20450;-76
2022/03/29 07:24:26;;;;;;;14.57;7.90;;;14.90;1.00;;;;;;5062284;28;20992;-80
2022/03/29 07:26:54;;;;;;;8.60;6.80;;;14.90;1.00;;;;;;5068040;28;20536;-81
2022/03/29 07:29:23;;;;;;;12.33;7.23;;;14.80;1.00;;;;;;5067176;28;20477;-78
2022/03/29 07:31:52;;;;;;;12.07;6.80;;;14.90;1.00;;;;;;5064553;28;20512;-77
2022/03/29 07:34:21;;;;;;;12.33;7.90;;;15.00;1.00;;;;;;5058821;28;20473;-77
2022/03/29 07:36:49;;;;;;;11.17;7.23;;;15.00;1.00;;;;;;5065498;28;20450;-78
2022/03/29 07:39:17;;;;;;;10.87;7.67;;;14.90;1.00;;;;;;5065685;28;20477;-78
2022/03/29 07:41:46;;;;;;;9.47;6.73;;;14.90;1.00;;;;;;5067031;28;20469;-77
2022/03/29 07:44:14;;;;;;;10.27;7.60;;;15.00;1.00;;;;;;5062326;28;20453;-78
2022/03/29 07:46:42;;;;;;;16.37;8.63;;;15.00;1.00;;;;;;5064289;28;20453;-77
2022/03/29 07:49:12;;;;;;;22.87;9.90;;;15.10;1.00;;;;;;5061456;28;20488;-77
2022/03/29 07:52:00;;;;;;;11.53;7.90;;;15.10;1.00;;;;;;5059138;28;20454;-76
2022/03/29 07:54:28;;;;;;;14.43;7.10;;;15.20;1.00;;;;;;5066971;28;20447;-77
2022/03/29 07:56:57;;;;;;;13.93;8.67;;;15.30;1.00;;;;;;5062942;28;20512;-77
2022/03/29 07:59:25;;;;;;;12.00;7.80;;;15.40;1.00;;;;;;5067776;28;20470;-78
2022/03/29 08:01:54;;;;;;;10.63;8.27;;;15.40;1.00;;;;;;5059785;28;20844;-79
2022/03/29 08:04:24;;;;;;;12.53;7.30;;;15.50;1.00;;;;;;5063976;28;20468;-76
2022/03/29 08:06:52;;;;;;;10.03;7.90;;;15.70;1.00;;;;;;5064834;28;20451;-77
2022/03/29 08:09:20;;;;;;;9.50;7.00;;;15.70;1.00;;;;;;5065294;28;20484;-78
2022/03/29 08:11:49;;;;;;;8.50;6.17;;;15.90;1.00;;;;;;5061990;28;20460;-78
2022/03/29 08:14:18;;;;;;;13.50;6.73;;;15.80;1.00;;;;;;5067087;28;20800;-80
2022/03/29 08:16:46;;;;;;;7.33;5.70;;;15.90;1.00;;;;;;5068801;28;20449;-77
2022/03/29 08:19:15;;;;;;;11.53;6.93;;;16.20;1.00;;;;;;5068474;28;20477;-77
2022/03/29 08:21:50;;;;;;;13.23;7.07;;;16.30;1.00;;;;;;5067313;28;20972;-79
2022/03/29 08:24:20;;;;;;;8.97;6.23;;;16.30;1.00;;;;;;5072164;28;20968;-77
2022/03/29 08:26:50;;;;;;;11.90;7.00;;;16.50;1.00;;;;;;5068577;28;20448;-78
2022/03/29 08:29:18;;;;;;;11.27;8.13;;;16.50;1.00;;;;;;5059843;28;20480;-79
2022/03/29 08:31:49;;;;;;;11.40;6.37;;;16.40;1.00;;;;;;5067799;28;20529;-77
2022/03/29 08:34:18;;;;;;;8.10;6.80;;;16.50;1.00;;;;;;5078078;28;20495;-79
2022/03/29 08:36:49;;;;;;;10.47;6.00;;;16.50;1.00;;;;;;5076781;28;20461;-77
2022/03/29 08:39:17;;;;;;;10.23;6.47;;;16.60;1.00;;;;;;5069388;28;20506;-79
2022/03/29 08:41:50;;;;;;;10.30;7.30;;;16.70;1.00;;;;;;5064980;28;20446;-76
2022/03/29 08:44:18;;;;;;;13.83;7.27;;;16.60;1.00;;;;;;5067473;28;20452;-78
2022/03/29 08:46:49;;;;;;;11.63;8.23;;;16.60;1.00;;;;;;5072930;28;20473;-78
2022/03/29 08:49:19;;;;;;;10.30;7.37;;;16.60;1.00;;;;;;5070726;28;20562;-79
2022/03/29 08:51:50;;;;;;;9.10;6.57;;;16.70;1.00;;;;;;5064809;28;21165;-78
2022/03/29 08:54:19;;;;;;;8.60;6.63;;;16.70;1.00;;;;;;5070050;28;20449;-83
2022/03/29 08:56:48;;;;;;;9.30;7.37;;;16.90;1.00;;;;;;5069343;28;20853;-75
2022/03/29 08:59:16;;;;;;;7.53;6.30;;;16.80;1.00;;;;;;5066835;28;20588;-76
2022/03/29 09:01:44;;;;;;;11.17;7.23;;;16.90;1.00;;;;;;5065042;28;20454;-78
2022/03/29 09:04:15;;;;;;;7.50;6.20;;;16.90;1.00;;;;;;5073404;28;20465;-78
2022/03/29 09:07:00;;;;;;;8.30;6.13;;;16.90;1.00;;;;;;5068291;28;20451;-78
2022/03/29 09:09:30;;;;;;;10.90;7.20;;;17.00;1.00;;;;;;5068850;28;20515;-78
2022/03/29 09:11:59;;;;;;;10.83;7.37;;;17.10;1.00;;;;;;5065708;28;20450;-78
2022/03/29 09:14:29;;;;;;;12.20;6.87;;;17.20;1.00;;;;;;5063703;28;20453;-77
2022/03/29 09:16:58;;;;;;;9.80;6.13;;;17.10;1.00;;;;;;5069477;28;20457;-81
2022/03/29 09:19:26;;;;;;;9.87;6.80;;;17.10;1.00;;;;;;5064062;28;20985;-78
2022/03/29 09:21:55;;;;;;;8.43;6.07;;;17.30;1.00;;;;;;5067622;28;20442;-78
2022/03/29 09:24:25;;;;;;;8.07;6.90;;;17.40;1.00;;;;;;5071678;28;21004;-81
2022/03/29 09:26:55;;;;;;;9.67;5.90;;;17.50;1.00;;;;;;5064717;28;20461;-78
2022/03/29 09:29:25;;;;;;;10.83;6.70;;;17.60;1.00;;;;;;5066167;28;20470;-78
2022/03/29 09:32:05;;;;;;;10.60;6.50;;;17.60;1.00;;;;;;5067496;28;20463;-79
2022/03/29 09:34:34;;;;;;;7.83;6.93;;;17.70;1.00;;;;;;5069478;28;21038;-78
2022/03/29 09:37:04;;;;;;;8.20;5.80;;;17.70;1.00;;;;;;5061721;28;20450;-81
2022/03/29 09:39:38;;;;;;;6.67;5.43;;;17.70;1.00;;;;;;5063606;28;20459;-79
2022/03/29 09:42:10;;;;;;;8.73;5.90;;;17.80;1.00;;;;;;5068928;28;20439;-80
2022/03/29 09:44:42;;;;;;;8.20;5.77;;;17.90;1.00;;;;;;5063203;28;20454;-78
2022/03/29 09:47:13;;;;;;;6.93;5.73;;;17.90;1.00;;;;;;5068240;28;20500;-79
2022/03/29 09:49:53;;;;;;;7.47;5.87;;;17.90;1.00;;;;;;5063102;28;21186;-78
2022/03/29 09:52:23;;;;;;;6.73;5.50;;;17.90;1.00;;;;;;5065258;28;20458;-78
2022/03/29 09:55:09;;;;;;;8.73;6.00;;;17.90;1.00;;;;;;5062369;28;20480;-78
2022/03/29 09:57:39;;;;;;;11.23;6.20;;;18.00;1.00;;;;;;5065531;28;20493;-78
2022/03/29 10:00:10;;;;;;;7.97;6.03;;;17.90;1.00;;;;;;5067609;28;21382;-77
2022/03/29 10:02:40;;;;;;;7.73;5.40;;;17.80;1.00;;;;;;5063039;28;20446;-80
2022/03/29 10:05:11;;;;;;;9.90;6.30;;;17.80;1.00;;;;;;5064384;28;20486;-79
2022/03/29 10:07:48;;;;;;;7.53;5.90;;;17.80;1.00;;;;;;5066915;28;20453;-78
2022/03/29 10:10:18;;;;;;;6.90;5.80;;;17.90;1.00;;;;;;5064634;28;20474;-79
2022/03/29 10:12:46;;;;;;;6.23;5.27;;;18.10;1.00;;;;;;5068069;28;20447;-78
2022/03/29 10:15:35;;;;;;;7.87;5.83;;;18.20;1.00;;;;;;5054798;28;20513;-78
2022/03/29 10:18:03;;;;;;;7.37;5.67;;;18.20;1.00;;;;;;5066248;28;20927;-77
2022/03/29 10:20:32;;;;;;;7.87;5.43;;;18.20;1.00;;;;;;5068170;28;20989;-77
2022/03/29 10:23:01;;;;;;;6.37;5.73;;;18.20;1.00;;;;;;5065840;28;20454;-75
2022/03/29 10:25:32;;;;;;;6.27;5.53;;;18.30;1.00;;;;;;5067095;28;20466;-78
2022/03/29 10:28:05;;;;;;;6.00;5.40;;;18.40;1.00;;;;;;5069154;28;21011;-77
2022/03/29 10:30:34;;;;;;;7.50;5.90;;;18.50;1.00;;;;;;5065130;28;20573;-78
2022/03/29 10:33:19;;;;;;;6.60;4.90;;;18.50;1.00;;;;;;5062398;28;20458;-77
2022/03/29 10:36:06;;;;;;;7.00;5.90;;;18.60;1.00;;;;;;5065449;28;20461;-79
2022/03/29 10:38:57;;;;;;;11.80;6.27;;;18.60;1.00;;;;;;5063273;28;20546;-79
2022/03/29 10:41:52;;;;;;;6.20;5.37;;;18.50;1.00;;;;;;5062580;28;20448;-76
2022/03/29 10:44:21;;;;;;;7.93;5.80;;;18.40;1.00;;;;;;5065122;28;20454;-78
2022/03/29 10:46:51;;;;;;;9.70;5.87;;;18.40;1.00;;;;;;5063138;28;20821;-82
2022/03/29 10:49:22;;;;;;;9.00;6.60;;;18.40;1.00;;;;;;5067485;28;20474;-79
2022/03/29 10:51:53;;;;;;;9.27;6.37;;;18.30;1.00;;;;;;5067872;28;20477;-78
2022/03/29 10:54:29;;;;;;;9.83;7.17;;;18.40;1.00;;;;;;5064276;28;20957;-78
2022/03/29 10:57:02;;;;;;;7.20;5.83;;;18.30;1.00;;;;;;5066912;28;21098;-78
2022/03/29 10:59:31;;;;;;;8.27;6.20;;;18.20;1.00;;;;;;5067426;28;20467;-79
2022/03/29 11:02:12;;;;;;;8.93;6.57;;;18.20;1.00;;;;;;5064745;28;20974;-76
2022/03/29 11:05:02;;;;;;;8.93;6.23;;;18.20;1.00;;;;;;5059985;28;20455;-78
2022/03/29 11:07:30;;;;;;;9.03;5.77;;;18.30;1.00;;;;;;5064704;28;20505;-77
2022/03/29 11:10:10;;;;;;;10.20;6.60;;;18.40;1.00;;;;;;5067421;28;20506;-79
2022/03/29 11:12:48;;;;;;;9.80;6.13;;;18.40;1.00;;;;;;5063464;28;21008;-80
2022/03/29 11:15:48;;;;;;;6.60;5.33;;;18.30;1.00;;;;;;5074184;28;20471;-80
2022/03/29 11:18:47;;;;;;;6.37;5.73;;;18.20;1.00;;;;;;5065720;28;20451;-79
2022/03/29 11:21:40;;;;;;;6.87;5.17;;;18.20;1.00;;;;;;5057282;28;20451;-78
2022/03/29 11:24:13;;;;;;;6.60;5.80;;;18.30;1.00;;;;;;5063405;28;20446;-79
2022/03/29 11:26:56;;;;;;;8.07;5.67;;;18.40;1.00;;;;;;5066644;28;20463;-79
2022/03/29 11:29:26;;;;;;;6.63;5.47;;;18.50;1.00;;;;;;5061174;28;20474;-78
2022/03/29 11:31:56;;;;;;;5.47;4.90;;;18.70;1.00;;;;;;5064620;28;20473;-79
2022/03/29 11:34:37;;;;;;;6.73;5.80;;;18.70;1.00;;;;;;5060520;28;21314;-77
2022/03/29 11:37:06;;;;;;;8.70;6.00;;;18.70;1.00;;;;;;5064840;28;20451;-79
2022/03/29 11:39:34;;;;;;;5.13;4.63;;;18.80;1.00;;;;;;5061999;28;20478;-76
2022/03/29 11:42:02;;;;;;;7.57;5.63;;;18.70;1.00;;;;;;5064484;28;20458;-78
2022/03/29 11:44:33;;;;;;;6.50;5.33;;;18.60;1.00;;;;;;5059917;28;20813;-78
2022/03/29 11:47:01;;;;;;;6.03;5.43;;;18.50;1.00;;;;;;5058472;28;20443;-77
2022/03/29 11:49:40;;;;;;;7.07;5.53;;;18.60;1.00;;;;;;5062902;28;20489;-78
2022/03/29 11:52:12;;;;;;;5.20;4.70;;;18.60;1.00;;;;;;5064903;28;20489;-77
2022/03/29 11:54:42;;;;;;;6.20;5.60;;;18.60;1.00;;;;;;5061116;28;20870;-78
2022/03/29 11:57:16;;;;;;;8.20;5.10;;;18.70;1.00;;;;;;5065577;28;20443;-78
2022/03/29 11:59:46;;;;;;;9.90;7.10;;;18.70;1.00;;;;;;5068184;28;20512;-78
2022/03/29 12:02:14;;;;;;;8.07;5.80;;;18.70;1.00;;;;;;5066846;28;20466;-77
2022/03/29 12:04:43;;;;;;;9.50;5.50;;;18.50;1.00;;;;;;5063265;28;21026;-79
2022/03/29 12:07:12;;;;;;;8.80;5.90;;;18.50;1.00;;;;;;5061345;28;20455;-78
2022/03/29 12:09:46;;;;;;;9.97;5.83;;;18.40;1.00;;;;;;5069826;28;20478;-78
2022/03/29 12:12:15;;;;;;;6.50;5.70;;;18.60;1.00;;;;;;5064051;28;20486;-78
2022/03/29 12:14:45;;;;;;;5.90;5.30;;;18.60;1.00;;;;;;5063972;28;20455;-82
2022/03/29 12:17:13;;;;;;;5.83;5.33;;;18.50;1.00;;;;;;5064552;28;20458;-77
2022/03/29 12:19:47;;;;;;;6.43;5.60;;;18.70;1.00;;;;;;5064856;28;20466;-79
2022/03/29 12:22:15;;;;;;;9.90;5.53;;;18.70;1.00;;;;;;5062899;28;20437;-77
2022/03/29 12:24:44;;;;;;;5.60;5.17;;;18.80;1.00;;;;;;5066093;28;21062;-79
2022/03/29 12:27:15;;;;;;;7.20;5.50;;;18.90;1.00;;;;;;5051732;28;20537;-77
2022/03/29 12:29:46;;;;;;;5.73;5.07;;;18.80;1.00;;;;;;5064242;28;20462;-79
2022/03/29 12:32:16;;;;;;;6.53;5.83;;;18.80;1.00;;;;;;5059142;28;20474;-79
2022/03/29 12:34:55;;;;;;;8.13;5.60;;;19.00;1.00;;;;;;5058982;28;20455;-81
2022/03/29 12:37:24;;;;;;;6.90;5.30;;;19.00;1.00;;;;;;5057134;28;20451;-80
2022/03/29 12:39:56;;;;;;;6.80;5.33;;;19.00;1.00;;;;;;5058443;28;21029;-78
2022/03/29 12:42:24;;;;;;;10.37;6.63;;;19.00;1.00;;;;;;5060987;28;20454;-76
2022/03/29 12:44:59;;;;;;;6.87;6.17;;;19.00;1.00;;;;;;5066209;28;20451;-77
2022/03/29 12:47:31;;;;;;;7.60;4.73;;;19.00;1.00;;;;;;5066605;28;20519;-78
2022/03/29 12:50:00;;;;;;;7.63;6.03;;;19.00;1.00;;;;;;5062445;28;20478;-76
2022/03/29 12:52:28;;;;;;;8.77;6.10;;;19.10;1.00;;;;;;5062541;28;21085;-77
2022/03/29 12:55:01;;;;;;;8.37;5.67;;;19.00;1.00;;;;;;5065329;28;20957;-76
2022/03/29 12:57:41;;;;;;;8.90;6.83;;;18.90;1.00;;;;;;5058993;28;20834;-77
2022/03/29 13:00:14;;;;;;;6.20;5.60;;;18.70;1.00;;;;;;5061785;28;20581;-77
2022/03/29 13:02:46;;;;;;;8.83;6.93;;;18.80;1.00;;;;;;5068437;28;20452;-78
2022/03/29 13:05:15;;;;;;;7.27;5.80;;;18.90;1.00;;;;;;5063927;28;20445;-77
2022/03/29 13:07:45;;;;;;;7.63;5.60;;;18.80;1.00;;;;;;5067035;28;20498;-78
2022/03/29 13:10:16;;;;;;;6.10;5.33;;;19.00;1.00;;;;;;5068783;28;20559;-76
2022/03/29 13:12:51;;;;;;;9.73;6.10;;;19.10;1.00;;;;;;5070678;28;21313;-78
2022/03/29 13:15:42;;;;;;;10.40;5.57;;;19.10;1.00;;;;;;5069553;28;20454;-76